createdAt,value
2022-10-12T10:11:29.524Z,1025.158813
2022-10-12T10:12:09.428Z,1025.121094
2022-10-12T10:13:08.335Z,1025.174805
2022-10-12T10:14:07.188Z,1025.202637
2022-10-12T10:15:02.361Z,1025.156616
2022-10-12T10:16:02.221Z,1025.188721
2022-10-12T10:16:57.466Z,1025.120239
2022-10-12T10:17:56.818Z,1025.162109
2022-10-12T10:18:51.962Z,1025.18811
2022-10-12T10:20:46.622Z,1025.223022
2022-10-12T10:21:45.952Z,1025.223755
2022-10-12T10:22:41.338Z,1025.237793
2022-10-12T10:23:43.306Z,1025.214111
2022-10-12T10:25:35.738Z,1025.313477
2022-10-12T10:26:31.005Z,1025.237793
2022-10-12T10:27:31.132Z,1025.192261
2022-10-12T10:28:28.925Z,1025.188721
2022-10-12T10:30:33.863Z,1025.158936
2022-10-12T10:30:36.582Z,1025.158936
2022-10-12T10:31:22.685Z,1025.174194
2022-10-12T10:32:23.057Z,1025.262573
2022-10-12T10:33:15.804Z,1025.116089
2022-10-12T10:34:15.514Z,1025.257324
2022-10-12T10:36:09.363Z,1025.112305
2022-10-12T10:37:04.566Z,1025.158936
2022-10-12T10:38:00.039Z,1025.161743
2022-10-12T10:38:58.980Z,1025.119629
2022-10-12T10:39:53.440Z,1025.074707
2022-10-12T10:40:51.822Z,1025.085693
2022-10-12T10:41:46.170Z,1025.064575
2022-10-12T10:42:42.441Z,1025.196899
2022-10-12T10:43:43.622Z,1025.175781
2022-10-12T10:44:35.382Z,1025.143799
2022-10-12T10:45:36.853Z,1025.162476
2022-10-12T10:46:29.412Z,1025.154663
2022-10-12T10:47:30.251Z,1025.13562
2022-10-12T10:48:22.461Z,1025.127686
2022-10-12T10:50:15.047Z,1025.162476
2022-10-12T10:51:13.269Z,1025.151611
2022-10-12T10:52:07.105Z,1025.068604
2022-10-12T10:53:03.658Z,1025.014648
2022-10-12T10:54:04.669Z,1025.144287
2022-10-12T10:54:56.299Z,1025.090454
2022-10-12T10:55:52.459Z,1025.076538
2022-10-12T10:56:51.816Z,1025.02771
2022-10-12T10:57:45.590Z,1025.009033
2022-10-12T10:58:46.883Z,1025.054688
2022-10-12T11:00:39.226Z,1024.984619
2022-10-12T11:00:40.815Z,1024.984619
2022-10-12T11:01:35.894Z,1024.973877
2022-10-12T11:02:27.484Z,1025.016724
2022-10-12T11:04:04.669Z,1024.957031
2022-10-12T11:05:44.767Z,1024.929688
2022-10-12T11:06:40.303Z,1024.934937
2022-10-12T11:07:40.511Z,1024.905762
2022-10-12T11:08:35.944Z,1024.843506
2022-10-12T11:10:33.872Z,1024.921753
2022-10-12T11:11:29.215Z,1024.97583
2022-10-12T11:12:31.269Z,1024.924316
2022-10-12T11:13:26.019Z,1024.897339
2022-10-12T11:15:21.428Z,1024.895142
2022-10-12T11:16:21.065Z,1024.986938
2022-10-12T11:17:16.345Z,1024.924927
2022-10-12T11:18:16.258Z,1025.059814
2022-10-12T11:19:11.529Z,1024.954956
2022-10-12T11:20:12.809Z,1024.901123
2022-10-12T11:21:07.002Z,1024.949097
2022-10-12T11:22:06.880Z,1024.901123
2022-10-12T11:23:02.233Z,1024.933105
2022-10-12T11:23:59.046Z,1024.871094
2022-10-12T11:25:01.408Z,1024.847168
2022-10-12T11:25:54.477Z,1024.908936
2022-10-12T11:26:56.479Z,1024.890015
2022-10-12T11:27:53.430Z,1024.85498
2022-10-12T11:28:49.197Z,1024.841187
2022-10-12T11:30:44.082Z,1024.79248
2022-10-12T11:31:39.359Z,1024.778809
2022-10-12T11:32:41.499Z,1024.721558
2022-10-12T11:33:34.484Z,1024.764526
2022-10-12T11:34:34.525Z,1024.769653
2022-10-12T11:35:30.077Z,1024.746216
2022-10-12T11:36:29.747Z,1024.789063
2022-10-12T11:37:25.190Z,1024.729248
2022-10-12T11:38:27.828Z,1024.664307
2022-10-12T11:40:30.992Z,1024.687988
2022-10-12T11:40:47.830Z,1024.687988
2022-10-12T11:40:55.783Z,1024.687988
2022-10-12T11:41:35.754Z,1024.709106
2022-10-12T11:41:36.548Z,1024.709106
2022-10-12T11:41:45.010Z,1024.709106
2022-10-12T11:42:22.576Z,1024.710571
2022-10-12T11:42:22.945Z,1024.710571
2022-10-12T11:43:16.052Z,1024.719849
2022-10-12T11:44:12.349Z,1024.708984
2022-10-12T11:45:11.390Z,1024.617065
2022-10-12T11:46:06.708Z,1024.708984
2022-10-12T11:47:06.574Z,1024.671875
2022-10-12T11:48:01.616Z,1024.620972
2022-10-12T11:49:04.223Z,1024.650757
2022-10-12T11:49:56.994Z,1024.591675
2022-10-12T11:51:00.058Z,1024.56189
2022-10-12T11:51:04.319Z,1024.56189
2022-10-12T11:52:42.532Z,1024.582886
2022-10-12T11:53:37.991Z,1024.56311
2022-10-12T11:54:36.054Z,1024.608643
2022-10-12T11:55:35.445Z,1024.554688
2022-10-12T11:56:33.863Z,1024.561157
2022-10-12T11:57:29.105Z,1024.599121
2022-10-12T11:58:55.846Z,1024.59082
2022-10-12T11:58:59.477Z,1024.59082
2022-10-12T12:00:17.029Z,1024.595947
2022-10-12T12:01:16.290Z,1024.548828
2022-10-12T12:02:11.125Z,1024.579102
2022-10-12T12:03:11.533Z,1024.510864
2022-10-12T12:04:29.135Z,1024.557251
2022-10-12T12:04:36.398Z,1024.557251
2022-10-12T12:04:40.660Z,1024.557251
2022-10-12T12:05:43.769Z,1024.471191
2022-10-12T12:06:23.325Z,1024.483887
2022-10-12T12:07:21.032Z,1024.475464
2022-10-12T12:08:21.156Z,1024.507568
2022-10-12T12:09:16.500Z,1024.491455
2022-10-12T12:11:11.709Z,1024.464478
2022-10-12T12:12:11.290Z,1024.531982
2022-10-12T12:13:06.601Z,1024.48645
2022-10-12T12:14:06.392Z,1024.483887
2022-10-12T12:15:01.397Z,1024.564819
2022-10-12T12:16:01.551Z,1024.552124
2022-10-12T12:16:56.843Z,1024.466187
2022-10-12T12:17:56.833Z,1024.56311
2022-10-12T12:18:52.207Z,1024.477051
2022-10-12T12:19:54.775Z,1024.468628
2022-10-12T12:20:47.180Z,1024.493042
2022-10-12T12:21:49.638Z,1024.52771
2022-10-12T12:22:42.202Z,1024.52002
2022-10-12T12:23:44.642Z,1024.511719
2022-10-12T12:24:39.048Z,1024.493042
2022-10-12T12:25:37.127Z,1024.482178
2022-10-12T12:26:32.602Z,1024.552124
2022-10-12T12:27:34.722Z,1024.451782
2022-10-12T12:28:27.351Z,1024.440918
2022-10-12T12:30:22.426Z,1024.408813
2022-10-12T12:31:24.986Z,1024.417236
2022-10-12T12:32:17.693Z,1024.379272
2022-10-12T12:33:20.064Z,1024.41394
2022-10-12T12:34:12.622Z,1024.357422
2022-10-12T12:35:14.899Z,1024.36499
2022-10-12T12:36:07.585Z,1024.348877
2022-10-12T12:37:09.817Z,1024.375854
2022-10-12T12:38:02.923Z,1024.338013
2022-10-12T12:39:05.707Z,1024.321899
2022-10-12T12:39:58.292Z,1024.379395
2022-10-12T12:41:00.420Z,1024.279053
2022-10-12T12:41:57.787Z,1024.343872
2022-10-12T12:42:01.947Z,1024.343872
2022-10-12T12:42:51.037Z,1024.332886
2022-10-12T12:43:50.866Z,1024.249512
2022-10-12T12:44:45.630Z,1024.298462
2022-10-12T12:45:46.190Z,1024.332886
2022-10-12T12:46:41.377Z,1024.262207
2022-10-12T12:47:45.987Z,1024.300171
2022-10-12T12:47:46.803Z,1024.300171
2022-10-12T12:48:38.905Z,1024.240967
2022-10-12T12:49:34.196Z,1024.279053
2022-10-12T12:50:36.755Z,1024.321899
2022-10-12T12:51:31.346Z,1024.195557
2022-10-12T12:52:29.338Z,1024.149048
2022-10-12T12:53:24.214Z,1024.168579
2022-10-12T12:54:24.187Z,1024.166016
2022-10-12T12:55:19.495Z,1024.171753
2022-10-12T12:56:19.267Z,1024.148315
2022-10-12T12:57:14.145Z,1024.2052
2022-10-12T12:58:16.312Z,1024.143188
2022-10-12T12:59:08.636Z,1024.130127
2022-10-12T13:01:38.197Z,1024.089233
2022-10-12T13:02:18.999Z,1024.002441
2022-10-12T13:03:18.018Z,1024.054688
2022-10-12T13:04:17.337Z,1024.043701
2022-10-12T13:05:13.018Z,1024.105225
2022-10-12T13:06:12.588Z,1024.089233
2022-10-12T13:07:07.952Z,1024.079102
2022-10-12T13:08:07.984Z,1024.039551
2022-10-12T13:09:03.323Z,1024.061523
2022-10-12T13:10:58.529Z,1023.978577
2022-10-12T13:11:58.525Z,1024.05127
2022-10-12T13:12:53.657Z,1024.013428
2022-10-12T13:13:51.884Z,1023.905457
2022-10-12T13:14:51.968Z,1023.945129
2022-10-12T13:15:47.395Z,1023.972046
2022-10-12T13:17:31.158Z,1023.856445
2022-10-12T13:17:44.306Z,1023.907166
2022-10-12T13:18:48.828Z,1023.885132
2022-10-12T13:19:42.448Z,1023.828796
2022-10-12T13:20:37.722Z,1023.930786
2022-10-12T13:21:38.447Z,1023.84137
2022-10-12T13:22:34.343Z,1023.836304
2022-10-12T13:23:31.223Z,1023.820313
2022-10-12T13:24:31.108Z,1023.807678
2022-10-12T13:25:26.329Z,1023.83728
2022-10-12T13:26:26.015Z,1023.862427
2022-10-12T13:27:21.250Z,1023.835449
2022-10-12T13:28:23.937Z,1023.846313
2022-10-12T13:29:16.349Z,1023.868408
2022-10-12T13:31:11.675Z,1023.801453
2022-10-12T13:32:11.493Z,1023.801453
2022-10-12T13:33:06.483Z,1023.820313
2022-10-12T13:34:06.430Z,1023.76123
2022-10-12T13:35:01.328Z,1023.81012
2022-10-12T13:36:01.430Z,1023.858948
2022-10-12T13:36:56.351Z,1023.821045
2022-10-12T13:37:58.639Z,1023.759216
2022-10-12T13:38:51.266Z,1023.775269
2022-10-12T13:39:53.482Z,1023.702271
2022-10-12T13:40:45.951Z,1023.802124
2022-10-12T13:41:45.763Z,1023.702271
2022-10-12T13:42:41.070Z,1023.710327
2022-10-12T13:43:40.794Z,1023.629517
2022-10-12T13:46:45.408Z,1023.569824
2022-10-12T13:47:25.441Z,1023.554626
2022-10-12T13:48:46.455Z,1023.505737
2022-10-12T13:48:53.778Z,1023.505737
2022-10-12T13:48:58.026Z,1023.505737
2022-10-12T13:50:21.117Z,1023.488708
2022-10-12T13:51:20.583Z,1023.553772
2022-10-12T13:52:15.882Z,1023.537781
2022-10-12T13:53:16.516Z,1023.467712
2022-10-12T13:54:11.763Z,1023.52771
2022-10-12T13:55:12.095Z,1023.511597
2022-10-12T13:56:07.467Z,1023.495667
2022-10-12T13:58:03.263Z,1023.461182
2022-10-12T13:59:08.853Z,1023.436584
2022-10-12T13:59:14.232Z,1023.436584
2022-10-12T14:00:04.401Z,1023.441711
2022-10-12T14:00:57.189Z,1023.381714
2022-10-12T14:01:59.754Z,1023.383728
2022-10-12T14:02:52.381Z,1023.402832
2022-10-12T14:03:53.576Z,1023.464722
2022-10-12T14:05:51.494Z,1023.457642
2022-10-12T14:05:56.278Z,1023.457642
2022-10-12T14:06:49.748Z,1023.450134
2022-10-12T14:07:43.045Z,1023.358215
2022-10-12T14:08:42.730Z,1023.34729
2022-10-12T14:09:38.174Z,1023.358215
2022-10-12T14:10:38.064Z,1023.311829
2022-10-12T14:11:33.437Z,1023.250244
2022-10-12T14:12:33.213Z,1023.299194
2022-10-12T14:13:28.368Z,1023.326233
2022-10-12T14:14:28.170Z,1023.307678
2022-10-12T14:15:23.589Z,1023.334656
2022-10-12T14:16:25.930Z,1023.399475
2022-10-12T14:17:18.706Z,1023.32959
2022-10-12T14:18:19.083Z,1023.376038
2022-10-12T14:19:16.275Z,1023.432373
2022-10-12T14:21:11.414Z,1023.343933
2022-10-12T14:22:13.987Z,1023.316956
2022-10-12T14:23:06.663Z,1023.378418
2022-10-12T14:24:05.721Z,1023.297424
2022-10-12T14:26:26.049Z,1023.328003
2022-10-12T14:27:05.704Z,1023.405396
2022-10-12T14:28:05.924Z,1023.313599
2022-10-12T14:29:02.016Z,1023.313599
2022-10-12T14:30:59.284Z,1023.413879
2022-10-12T14:31:56.127Z,1023.316956
2022-10-12T14:32:59.664Z,1023.311829
2022-10-12T14:33:52.960Z,1023.358032
2022-10-12T14:34:52.857Z,1023.306824
2022-10-12T14:35:48.223Z,1023.282837
2022-10-12T14:36:48.300Z,1023.36676
2022-10-12T14:37:43.474Z,1023.385864
2022-10-12T14:38:43.487Z,1023.33783
2022-10-12T14:39:38.725Z,1023.345642
2022-10-12T14:40:39.354Z,1023.356628
2022-10-12T14:41:37.380Z,1023.286682
2022-10-12T14:42:39.457Z,1023.289734
2022-10-12T14:43:34.716Z,1023.216614
2022-10-12T14:45:31.563Z,1023.208862
2022-10-12T14:46:27.155Z,1023.200745
2022-10-12T14:47:29.781Z,1023.246704
2022-10-12T14:48:25.130Z,1023.17688
2022-10-12T14:49:27.651Z,1023.21167
2022-10-12T14:51:23.662Z,1023.133789
2022-10-12T14:52:16.407Z,1023.133789
2022-10-12T14:53:19.077Z,1023.171753
2022-10-12T14:54:12.009Z,1023.137268
2022-10-12T14:56:08.301Z,1023.161621
2022-10-12T14:57:08.510Z,1023.145691
2022-10-12T14:58:03.720Z,1023.218872
2022-10-12T14:59:03.616Z,1023.129517
2022-10-12T14:59:58.751Z,1023.21051
2022-10-12T15:00:57.391Z,1023.213928
2022-10-12T15:01:56.252Z,1023.127869
2022-10-12T15:03:28.834Z,1023.097534
2022-10-12T15:04:06.312Z,1023.170044
2022-10-12T15:05:04.356Z,1023.130676
2022-10-12T15:06:02.741Z,1023.142273
2022-10-12T15:07:01.620Z,1023.083313
2022-10-12T15:08:02.807Z,1023.105164
2022-10-12T15:08:58.634Z,1023.08075
2022-10-12T15:09:58.219Z,1023.127136
2022-10-12T15:10:53.752Z,1023.08667
2022-10-12T15:11:53.173Z,1023.097534
2022-10-12T15:12:48.085Z,1023.111938
2022-10-12T15:13:47.727Z,1023.144531
2022-10-12T15:14:43.000Z,1023.082703
2022-10-12T15:15:45.547Z,1023.144531
2022-10-12T15:16:39.393Z,1023.13147
2022-10-12T15:17:39.090Z,1023.061584
2022-10-12T15:18:34.493Z,1023.188293
2022-10-12T15:19:33.207Z,1023.072571
2022-10-12T15:20:35.484Z,1023.037476
2022-10-12T15:21:29.054Z,1023.059265
2022-10-12T15:22:33.267Z,1022.962463
2022-10-12T15:23:26.197Z,1023.016418
2022-10-12T15:24:28.626Z,1023.008545
2022-10-12T15:26:20.756Z,1022.984314
2022-10-12T15:27:18.987Z,1023.0177
2022-10-12T15:28:14.610Z,1023.055603
2022-10-12T15:29:14.375Z,1023.050598
2022-10-12T15:30:09.205Z,1023.050476
2022-10-12T15:31:17.837Z,1023.07251
2022-10-12T15:31:18.265Z,1023.07251
2022-10-12T15:31:19.273Z,1023.07251
2022-10-12T15:33:24.133Z,1023.108276
2022-10-12T15:33:46.511Z,1023.06366
2022-10-12T15:35:42.645Z,1023.058838
2022-10-12T15:36:39.710Z,1023.057129
2022-10-12T15:37:39.082Z,1023.130493
2022-10-12T15:38:34.813Z,1023.085449
2022-10-12T15:40:28.220Z,1023.181152
2022-10-12T15:41:27.405Z,1023.028687
2022-10-12T15:42:21.644Z,1023.018616
2022-10-12T15:43:20.605Z,1023.058899
2022-10-12T15:44:15.815Z,1023.0354
2022-10-12T15:46:14.282Z,1023.020081
2022-10-12T15:47:07.560Z,1023.023315
2022-10-12T15:48:07.952Z,1023.045044
2022-10-12T15:49:03.774Z,1022.994019
2022-10-12T15:50:02.774Z,1023.013062
2022-10-12T15:50:58.277Z,1022.922119
2022-10-12T15:51:55.933Z,1022.978638
2022-10-12T15:52:50.412Z,1022.88501
2022-10-12T15:53:49.269Z,1022.877319
2022-10-12T15:55:44.615Z,1022.872253
2022-10-12T15:56:39.731Z,1022.829224
2022-10-12T15:57:35.779Z,1022.813354
2022-10-12T15:58:34.528Z,1022.792114
2022-10-12T16:00:30.196Z,1022.805603
2022-10-12T16:01:23.732Z,1022.773499
2022-10-12T16:02:22.463Z,1022.776917
2022-10-12T16:03:19.204Z,1022.717896
2022-10-12T16:03:26.068Z,1022.717896
2022-10-12T16:04:16.996Z,1022.690918
2022-10-12T16:06:17.368Z,1022.610107
2022-10-12T16:07:09.132Z,1022.632019
2022-10-12T16:08:07.929Z,1022.619019
2022-10-12T16:09:03.367Z,1022.637878
2022-10-12T16:10:58.630Z,1022.539063
2022-10-12T16:11:55.887Z,1022.614746
2022-10-12T16:12:55.404Z,1022.593689
2022-10-12T16:13:56.864Z,1022.610352
2022-10-12T16:14:54.040Z,1022.610352
2022-10-12T16:15:49.030Z,1022.559875
2022-10-12T16:16:45.683Z,1022.616211
2022-10-12T16:18:23.907Z,1022.567383
2022-10-12T16:19:04.279Z,1022.545654
2022-10-12T16:20:03.410Z,1022.618164
2022-10-12T16:21:06.255Z,1022.604492
2022-10-12T16:22:06.586Z,1022.694519
2022-10-12T16:23:03.102Z,1022.673462
2022-10-12T16:24:03.399Z,1022.675842
2022-10-12T16:26:00.088Z,1022.572266
2022-10-12T16:27:04.113Z,1022.505371
2022-10-12T16:28:06.343Z,1022.583862
2022-10-12T16:28:59.968Z,1022.55188
2022-10-12T16:30:00.827Z,1022.637756
2022-10-12T16:30:57.285Z,1022.581726
2022-10-12T16:31:57.230Z,1022.477417
2022-10-12T16:32:54.544Z,1022.43689
2022-10-12T16:33:54.480Z,1022.440308
2022-10-12T16:35:52.152Z,1022.593323
2022-10-12T16:36:53.081Z,1022.610046
2022-10-12T16:37:48.438Z,1022.551086
2022-10-12T16:38:50.797Z,1022.588867
2022-10-12T16:40:50.018Z,1022.48761
2022-10-12T16:41:46.199Z,1022.50946
2022-10-12T16:42:46.248Z,1022.455627
2022-10-12T16:43:43.651Z,1022.601013
2022-10-12T16:44:46.627Z,1022.555176
2022-10-12T16:45:41.080Z,1022.520325
2022-10-12T16:46:45.335Z,1022.665649
2022-10-12T16:47:42.607Z,1022.579834
2022-10-12T16:48:41.251Z,1022.568909
2022-10-12T16:49:36.603Z,1022.50946
2022-10-12T16:50:39.650Z,1022.552307
2022-10-12T16:51:51.882Z,1022.627991
2022-10-12T16:52:47.308Z,1022.614624
2022-10-12T16:53:46.199Z,1022.679382
2022-10-12T16:54:51.387Z,1022.698486
2022-10-12T16:55:51.581Z,1022.652771
2022-10-12T16:56:48.932Z,1022.637329
2022-10-12T16:57:49.513Z,1022.715454
2022-10-12T16:58:45.939Z,1022.664795
2022-10-12T17:00:42.370Z,1022.864197
2022-10-12T17:02:52.948Z,1022.837158
2022-10-12T17:02:57.434Z,1022.837158
2022-10-12T17:03:12.864Z,1022.8526
2022-10-12T17:04:15.667Z,1022.742798
2022-10-12T17:05:17.587Z,1022.782471
2022-10-12T17:06:16.667Z,1022.861389
2022-10-12T17:07:20.891Z,1022.940002
2022-10-12T17:08:24.156Z,1022.889587
2022-10-12T17:10:32.207Z,1022.769287
2022-10-12T17:11:28.723Z,1022.785828
2022-10-12T17:12:32.280Z,1022.829407
2022-10-12T17:13:28.456Z,1022.881348
2022-10-12T17:14:32.182Z,1022.811523
2022-10-12T17:15:32.298Z,1022.8172
2022-10-12T17:16:43.107Z,1022.73468
2022-10-12T17:17:37.408Z,1022.828735
2022-10-12T17:18:39.428Z,1022.799438
2022-10-12T17:20:52.132Z,1022.892822
2022-10-12T17:21:48.915Z,1022.906921
2022-10-12T17:22:44.185Z,1023.006165
2022-10-12T17:23:45.269Z,1022.939514
2022-10-12T17:25:56.725Z,1022.975647
2022-10-12T17:26:53.276Z,1023.035217
2022-10-12T17:27:57.795Z,1023.099854
2022-10-12T17:28:57.109Z,1023.116394
2022-10-12T17:31:01.478Z,1023.025391
2022-10-12T17:31:58.157Z,1023.031006
2022-10-12T17:33:03.905Z,1023.018311
2022-10-12T17:34:00.117Z,1023.117371
2022-10-12T17:35:04.299Z,1023.057922
2022-10-12T17:36:00.765Z,1023.090576
2022-10-12T17:37:03.547Z,1023.19043
2022-10-12T17:38:08.913Z,1023.126404
2022-10-12T17:39:13.105Z,1023.129272
2022-10-12T17:41:14.149Z,1023.153198
2022-10-12T17:42:09.369Z,1023.075439
2022-10-12T17:43:10.916Z,1023.129272
2022-10-12T17:44:08.480Z,1023.167053
2022-10-12T17:46:08.242Z,1023.164429
2022-10-12T17:47:14.244Z,1023.116455
2022-10-12T17:48:12.977Z,1023.065552
2022-10-12T17:49:23.518Z,1023.049561
2022-10-12T17:49:24.981Z,1023.049561
2022-10-12T17:51:11.332Z,1023.03302
2022-10-12T17:52:13.069Z,1023.043945
2022-10-12T17:53:14.422Z,1023.057434
2022-10-12T17:54:13.449Z,1023.090515
2022-10-12T17:55:59.107Z,1023.124634
2022-10-12T17:56:37.962Z,1023.161804
2022-10-12T17:57:37.005Z,1023.110229
2022-10-12T17:58:40.634Z,1023.174866
2022-10-12T18:00:36.661Z,1023.151489
2022-10-12T18:01:35.837Z,1023.122009
2022-10-12T18:02:40.896Z,1023.16272
2022-10-12T18:03:35.619Z,1023.092834
2022-10-12T18:04:32.820Z,1023.108948
2022-10-12T18:05:34.991Z,1023.135803
2022-10-12T18:06:29.313Z,1023.053284
2022-10-12T18:07:32.795Z,1023.021118
2022-10-12T18:08:31.605Z,1023.042908
2022-10-12T18:09:25.950Z,1022.985901
2022-10-12T18:11:24.419Z,1022.924988
2022-10-12T18:12:25.447Z,1022.908936
2022-10-12T18:13:20.773Z,1022.95752
2022-10-12T18:14:16.687Z,1022.946716
2022-10-12T18:16:13.299Z,1022.941467
2022-10-12T18:17:10.519Z,1022.906616
2022-10-12T18:18:15.176Z,1022.963135
2022-10-12T18:19:11.836Z,1023.02771
2022-10-12T18:20:04.723Z,1023.000427
2022-10-12T18:21:07.694Z,1022.968323
2022-10-12T18:22:00.844Z,1022.987244
2022-10-12T18:23:04.902Z,1023.022034
2022-10-12T18:23:57.496Z,1022.987244
2022-10-12T18:24:57.677Z,1023.019348
2022-10-12T18:25:54.612Z,1023.083923
2022-10-12T18:26:53.696Z,1023.132568
2022-10-12T18:27:53.846Z,1023.065491
2022-10-12T18:28:57.557Z,1023.140808
2022-10-12T18:29:52.707Z,1023.108398
2022-10-12T18:30:55.462Z,1023.025452
2022-10-12T18:31:48.936Z,1023.044128
2022-10-12T18:32:51.301Z,1023.04718
2022-10-12T18:33:44.166Z,1023.03894
2022-10-12T18:34:50.736Z,1023.087036
2022-10-12T18:35:46.704Z,1023.143799
2022-10-12T18:37:15.778Z,1023.074097
2022-10-12T18:37:55.497Z,1023.116882
2022-10-12T18:38:55.325Z,1023.148926
2022-10-12T18:39:51.090Z,1023.143433
2022-10-12T18:40:50.106Z,1023.194519
2022-10-12T18:41:45.462Z,1023.154602
2022-10-12T18:42:46.492Z,1023.195496
2022-10-12T18:43:44.818Z,1023.262451
2022-10-12T18:45:42.668Z,1023.174805
2022-10-12T18:46:41.872Z,1023.153381
2022-10-12T18:47:44.584Z,1023.07843
2022-10-12T18:48:36.712Z,1023.108215
2022-10-12T18:50:34.013Z,1023.119019
2022-10-12T18:51:37.759Z,1023.129883
2022-10-12T18:52:31.091Z,1023.052002
2022-10-12T18:53:29.811Z,1023.170166
2022-10-12T18:54:29.939Z,1023.097717
2022-10-12T18:55:35.688Z,1023.146301
2022-10-12T18:56:39.663Z,1023.178589
2022-10-12T18:57:39.948Z,1023.176147
2022-10-12T18:58:40.337Z,1023.198303
2022-10-12T19:00:36.933Z,1023.149292
2022-10-12T19:01:30.089Z,1023.087646
2022-10-12T19:02:32.886Z,1023.125427
2022-10-12T19:03:25.555Z,1023.028687
2022-10-12T19:04:26.197Z,1023.044739
2022-10-12T19:05:26.171Z,1023.066284
2022-10-12T19:06:18.764Z,1023.031921
2022-10-12T19:07:20.454Z,1023.050293
2022-10-12T19:08:12.891Z,1023.157715
2022-10-12T19:09:20.581Z,1023.077209
2022-10-12T19:11:18.933Z,1023.09314
2022-10-12T19:12:52.810Z,1023.042725
2022-10-12T19:15:40.126Z,1023.007446
2022-10-12T19:16:39.676Z,1023.092773
2022-10-12T19:17:35.372Z,1022.983032
2022-10-12T19:18:33.143Z,1022.997375
2022-10-12T19:20:18.635Z,1023.042664
2022-10-12T19:20:59.441Z,1022.951721
2022-10-12T19:21:58.575Z,1022.970886
2022-10-12T19:22:56.757Z,1022.925781
2022-10-12T19:23:57.029Z,1022.936951
2022-10-12T19:25:50.838Z,1022.883972
2022-10-12T19:26:53.433Z,1022.892456
2022-10-12T19:27:49.813Z,1022.831177
2022-10-12T19:28:52.093Z,1022.825867
2022-10-12T19:29:47.508Z,1022.790894
2022-10-12T19:30:45.644Z,1022.809937
2022-10-12T19:31:42.172Z,1022.788635
2022-10-12T19:32:41.710Z,1022.79126
2022-10-12T19:33:39.671Z,1022.769897
2022-10-12T19:35:36.347Z,1022.794434
2022-10-12T19:36:38.169Z,1022.719543
2022-10-12T19:37:31.628Z,1022.805481
2022-10-12T19:38:31.329Z,1022.821594
2022-10-12T19:39:25.921Z,1022.842896
2022-10-12T19:41:31.878Z,1022.756165
2022-10-12T19:42:31.991Z,1022.842102
2022-10-12T19:43:28.314Z,1022.809937
2022-10-12T19:44:27.062Z,1022.809937
2022-10-12T19:45:30.532Z,1022.678284
2022-10-12T19:46:23.160Z,1022.686768
2022-10-12T19:47:21.835Z,1022.749207
2022-10-12T19:48:16.115Z,1022.639038
2022-10-12T19:49:18.460Z,1022.666138
2022-10-12T19:51:15.801Z,1022.651001
2022-10-12T19:52:17.827Z,1022.602783
2022-10-12T19:54:09.719Z,1022.532776
2022-10-12T19:54:43.976Z,1022.521057
2022-10-12T19:55:45.009Z,1022.612244
2022-10-12T19:56:44.699Z,1022.524109
2022-10-12T19:57:39.927Z,1022.617676
2022-10-12T19:58:43.431Z,1022.56958
2022-10-12T19:59:40.434Z,1022.580383
2022-10-12T20:00:40.788Z,1022.513855
2022-10-12T20:01:36.709Z,1022.562317
2022-10-12T20:02:39.304Z,1022.629395
2022-10-12T20:03:37.236Z,1022.594116
2022-10-12T20:05:34.297Z,1022.574768
2022-10-12T20:06:37.738Z,1022.631714
2022-10-12T20:07:35.833Z,1022.631714
2022-10-12T20:08:38.499Z,1022.70697
2022-10-12T20:09:30.439Z,1022.634033
2022-10-12T20:09:49.269Z,1022.604858
2022-10-12T20:10:51.766Z,1022.639282
2022-10-12T20:11:51.222Z,1022.647766
2022-10-12T20:12:55.142Z,1022.653259
2022-10-12T20:13:47.409Z,1022.629395
2022-10-12T20:14:51.512Z,1022.56958
2022-10-12T20:15:47.956Z,1022.637207
2022-10-12T20:16:49.352Z,1022.637207
2022-10-12T20:17:43.738Z,1022.648071
2022-10-12T20:18:42.544Z,1022.575745
2022-10-12T20:20:44.837Z,1022.658875
2022-10-12T20:21:37.143Z,1022.624146
2022-10-12T20:22:35.270Z,1022.597351
2022-10-12T20:23:35.397Z,1022.677795
2022-10-12T20:26:20.726Z,1022.535095
2022-10-12T20:27:10.132Z,1022.606873
2022-10-12T20:28:08.196Z,1022.569275
2022-10-12T20:29:04.381Z,1022.604614
2022-10-12T20:30:01.159Z,1022.588501
2022-10-12T20:31:03.327Z,1022.666138
2022-10-12T20:32:01.640Z,1022.683044
2022-10-12T20:33:04.724Z,1022.626465
2022-10-12T20:34:04.064Z,1022.593811
2022-10-12T20:36:01.923Z,1022.547607
2022-10-12T20:37:07.515Z,1022.606873
2022-10-12T20:38:06.273Z,1022.585632
2022-10-12T20:39:10.953Z,1022.575745
2022-10-12T20:40:06.101Z,1022.613281
2022-10-12T20:41:10.239Z,1022.57312
2022-10-12T20:42:02.737Z,1022.672485
2022-10-12T20:43:04.766Z,1022.640503
2022-10-12T20:44:05.078Z,1022.664734
2022-10-12T20:46:05.527Z,1022.5979
2022-10-12T20:47:03.580Z,1022.680969
2022-10-12T20:47:58.723Z,1022.680969
2022-10-12T20:48:59.162Z,1022.622559
2022-10-12T20:49:58.898Z,1022.665649
2022-10-12T20:50:53.059Z,1022.633423
2022-10-12T20:51:52.076Z,1022.638977
2022-10-12T20:52:46.426Z,1022.612122
2022-10-12T20:53:47.904Z,1022.682068
2022-10-12T20:54:40.538Z,1022.671326
2022-10-12T20:55:42.908Z,1022.678894
2022-10-12T20:56:42.387Z,1022.692932
2022-10-12T20:57:48.018Z,1022.612427
2022-10-12T20:58:47.802Z,1022.703735
2022-10-12T20:59:47.164Z,1022.64679
2022-10-12T21:00:48.654Z,1022.663635
2022-10-12T21:01:46.958Z,1022.650208
2022-10-12T21:02:52.445Z,1022.709534
2022-10-12T21:04:38.540Z,1022.577942
2022-10-12T21:05:18.669Z,1022.582336
2022-10-12T21:06:19.078Z,1022.70575
2022-10-12T21:07:18.176Z,1022.619995
2022-10-12T21:08:18.672Z,1022.633972
2022-10-12T21:09:21.252Z,1022.709167
2022-10-12T21:11:24.664Z,1022.682678
2022-10-12T21:12:19.034Z,1022.674622
2022-10-12T21:13:18.759Z,1022.639648
2022-10-12T21:14:22.298Z,1022.543213
2022-10-12T21:16:20.415Z,1022.610474
2022-10-12T21:17:24.230Z,1022.570251
2022-10-12T21:18:23.860Z,1022.562256
2022-10-12T21:19:25.571Z,1022.650696
2022-10-12T21:21:25.212Z,1022.560303
2022-10-12T21:22:21.762Z,1022.562622
2022-10-12T21:23:23.979Z,1022.549744
2022-10-12T21:24:25.729Z,1022.621765
2022-10-12T21:26:32.916Z,1022.582031
2022-10-12T21:27:32.348Z,1022.560669
2022-10-12T21:28:31.309Z,1022.55542
2022-10-12T21:29:31.883Z,1022.517822
2022-10-12T21:31:32.553Z,1022.496643
2022-10-12T21:32:40.519Z,1022.515442
2022-10-12T21:34:26.058Z,1022.469788
2022-10-12T21:35:50.521Z,1022.481934
2022-10-12T21:36:50.432Z,1022.514038
2022-10-12T21:37:47.397Z,1022.52478